createdAt,value
2022-11-12T00:17:11.662Z,3.60
2022-11-12T00:19:38.481Z,3.50
2022-11-12T00:33:36.758Z,3.60
2022-11-12T00:36:11.235Z,3.80
2022-11-12T00:38:39.404Z,3.70
2022-11-12T00:41:07.243Z,3.60
2022-11-12T00:43:34.088Z,3.40
2022-11-12T00:47:00.964Z,3.40
2022-11-12T00:49:48.272Z,3.60
2022-11-12T02:35:39.012Z,2.50
2022-11-12T05:34:24.537Z,1.80
2022-11-12T05:37:44.212Z,1.90
2022-11-12T05:40:53.096Z,1.70
2022-11-12T05:49:09.173Z,1.50
2022-11-12T05:51:37.944Z,1.60
2022-11-12T06:06:52.945Z,1.50
2022-11-12T06:09:19.930Z,1.50
2022-11-12T06:17:21.994Z,1.60
2022-11-12T06:19:48.984Z,1.60
2022-11-12T06:25:09.983Z,1.70
2022-11-12T06:27:39.552Z,1.50
2022-11-12T06:30:13.573Z,1.50
2022-11-12T06:42:15.135Z,3.20
2022-11-12T06:44:42.043Z,1.90
2022-11-12T06:47:09.997Z,2.20
2022-11-12T06:49:37.213Z,1.90
2022-11-12T06:52:16.537Z,1.60
2022-11-12T06:57:45.524Z,1.90
2022-11-12T07:00:12.660Z,2.10
2022-11-12T07:02:43.023Z,2.20
2022-11-12T07:05:09.816Z,2.20
2022-11-12T07:07:36.629Z,2.20
2022-11-12T07:10:03.519Z,2.40
2022-11-12T07:12:31.283Z,2.30
2022-11-12T07:15:00.242Z,2.40
2022-11-12T07:17:27.511Z,2.60
2022-11-12T07:20:00.741Z,2.70
2022-11-12T07:22:31.870Z,2.90
2022-11-12T07:28:31.518Z,3.00
2022-11-12T07:33:53.501Z,3.50
2022-11-12T07:39:08.793Z,3.60
2022-11-12T07:41:42.653Z,4.00
2022-11-12T08:10:30.484Z,5.00
2022-11-12T09:27:52.411Z,9.10
2022-11-12T09:30:28.380Z,9.70
2022-11-12T09:32:59.830Z,9.30
2022-11-12T09:35:28.111Z,9.40
2022-11-12T09:37:55.587Z,9.50
2022-11-12T09:40:22.650Z,9.80
2022-11-12T09:42:52.341Z,9.80
2022-11-12T09:45:22.572Z,10.00
2022-11-12T09:47:54.293Z,10.00
2022-11-12T09:50:28.162Z,10.00
2022-11-12T09:53:06.693Z,10.10
2022-11-12T09:55:34.960Z,10.20
2022-11-12T09:58:01.771Z,10.40
2022-11-12T10:00:30.618Z,10.50
2022-11-12T10:02:57.436Z,10.60
2022-11-12T10:05:29.238Z,10.50
2022-11-12T10:08:05.337Z,10.60
2022-11-12T10:10:38.949Z,10.60
2022-11-12T10:13:21.207Z,10.70
2022-11-12T10:16:11.246Z,10.70
2022-11-12T10:18:41.510Z,10.70
2022-11-12T10:21:12.596Z,10.70
2022-11-12T10:23:41.593Z,10.60
2022-11-12T10:26:12.977Z,10.50
2022-11-12T10:28:47.064Z,10.50
2022-11-12T10:31:17.758Z,10.50
2022-11-12T10:33:44.685Z,10.60
2022-11-12T10:36:17.493Z,10.80
2022-11-12T10:38:44.341Z,10.90
2022-11-12T10:41:17.989Z,11.10
2022-11-12T10:43:52.929Z,11.30
2022-11-12T10:46:22.276Z,11.50
2022-11-12T10:48:56.995Z,11.80
2022-11-12T10:55:03.535Z,11.90
2022-11-12T10:57:30.638Z,12.00
2022-11-12T11:00:10.691Z,12.20
2022-11-12T11:03:02.470Z,12.30
2022-11-12T11:05:30.617Z,12.50
2022-11-12T11:10:33.316Z,13.00
2022-11-12T11:13:22.683Z,13.10
2022-11-12T11:21:26.137Z,13.60
2022-11-12T11:24:02.294Z,13.70
2022-11-12T11:26:32.110Z,13.60
2022-11-12T11:29:00.748Z,13.70
2022-11-12T11:31:46.055Z,13.90
2022-11-12T11:34:18.740Z,13.90
2022-11-12T11:36:58.539Z,14.00
2022-11-12T11:39:30.428Z,14.00
2022-11-12T11:42:16.450Z,14.00
2022-11-12T11:44:43.284Z,13.90
2022-11-12T11:47:57.693Z,14.00
2022-11-12T11:50:28.334Z,14.10
2022-11-12T12:23:58.345Z,15.80
2022-11-12T12:26:27.155Z,15.70
2022-11-12T12:28:53.961Z,15.90
2022-11-12T12:31:21.742Z,15.90
2022-11-12T12:33:53.539Z,16.00
2022-11-12T12:36:23.583Z,16.00
2022-11-12T12:38:53.432Z,16.10
2022-11-12T12:41:20.313Z,16.20
2022-11-12T12:43:49.458Z,16.20
2022-11-12T12:46:16.579Z,16.20
2022-11-12T12:48:44.359Z,15.90
2022-11-12T12:51:15.930Z,15.60
2022-11-12T12:53:42.880Z,15.90
2022-11-12T12:56:13.164Z,16.20
2022-11-12T12:58:39.996Z,16.50
2022-11-12T13:01:22.737Z,16.70
2022-11-12T13:03:56.191Z,16.50
2022-11-12T13:06:24.545Z,16.20
2022-11-12T13:08:52.423Z,16.00
2022-11-12T13:11:58.077Z,15.60
2022-11-12T13:14:37.147Z,15.20
2022-11-12T13:17:04.079Z,14.90
2022-11-12T13:19:33.989Z,14.70
2022-11-12T13:22:19.341Z,14.50
2022-11-12T13:25:05.176Z,14.40
2022-11-12T13:27:44.691Z,14.20
2022-11-12T13:30:14.772Z,14.00
2022-11-12T13:32:44.779Z,14.00
2022-11-12T13:35:11.592Z,13.90
2022-11-12T13:37:45.196Z,13.80
2022-11-12T13:40:13.103Z,13.60
2022-11-12T13:42:49.057Z,13.40
2022-11-12T13:45:22.649Z,13.20
2022-11-12T13:47:49.579Z,13.20
2022-11-12T13:50:17.539Z,13.00
2022-11-12T13:52:44.407Z,12.90
2022-11-12T13:55:18.212Z,12.80
2022-11-12T13:57:51.285Z,12.80
2022-11-12T14:00:18.274Z,12.70
2022-11-12T14:02:45.912Z,12.60
2022-11-12T14:05:16.653Z,12.50
2022-11-12T14:07:46.622Z,12.60
2022-11-12T14:10:24.662Z,12.30
2022-11-12T14:12:57.772Z,12.20
2022-11-12T14:15:39.949Z,12.30
2022-11-12T14:18:16.264Z,12.30
2022-11-12T14:20:43.168Z,12.20
2022-11-12T14:23:21.596Z,11.50
2022-11-12T14:25:52.281Z,11.10
2022-11-12T14:28:25.728Z,10.90
2022-11-12T14:30:52.662Z,10.70
2022-11-12T14:33:21.224Z,10.60
2022-11-12T14:35:48.821Z,10.50
2022-11-12T14:38:16.805Z,10.20
2022-11-12T14:40:44.809Z,9.90
2022-11-12T14:43:27.136Z,9.50
2022-11-12T14:45:54.954Z,9.30
2022-11-12T14:48:21.875Z,9.20
2022-11-12T14:50:50.934Z,9.30
2022-11-12T14:53:28.500Z,9.50
2022-11-12T14:55:55.902Z,9.30
2022-11-12T14:58:23.011Z,9.20
2022-11-12T15:00:51.750Z,8.80
2022-11-12T15:03:19.672Z,8.50
2022-11-12T16:12:53.457Z,7.70
2022-11-12T16:26:51.255Z,7.80
2022-11-12T17:51:52.037Z,6.00
2022-11-12T18:59:39.148Z,4.70
2022-11-12T19:08:20.554Z,4.70
2022-11-12T19:17:12.685Z,5.20
2022-11-12T19:31:48.069Z,4.50
2022-11-12T19:34:16.849Z,4.50
2022-11-12T19:37:32.424Z,4.50
2022-11-12T19:39:58.991Z,6.00
2022-11-12T19:42:30.877Z,4.80
2022-11-12T19:44:57.649Z,4.70
2022-11-12T19:47:27.509Z,4.40
2022-11-12T19:50:06.358Z,4.90
2022-11-12T19:52:36.658Z,4.60
2022-11-12T19:55:51.345Z,4.00
2022-11-12T19:58:26.129Z,4.70
2022-11-12T20:04:24.421Z,4.40
2022-11-12T20:06:54.443Z,4.10
2022-11-12T20:09:22.698Z,4.20
2022-11-12T20:12:04.533Z,4.10
2022-11-12T20:14:34.178Z,2.40
2022-11-12T20:17:04.978Z,4.60
2022-11-12T20:19:41.612Z,4.00
2022-11-12T20:25:28.399Z,4.20
2022-11-12T20:35:41.569Z,4.20
2022-11-12T20:40:38.705Z,4.10
2022-11-12T20:43:05.493Z,3.70
2022-11-12T20:48:14.738Z,3.40
2022-11-12T20:51:09.341Z,3.50
2022-11-12T20:53:44.965Z,2.80
2022-11-12T20:56:12.737Z,3.60
2022-11-12T20:58:41.471Z,3.50
2022-11-12T21:01:10.172Z,2.70
2022-11-12T21:04:10.011Z,3.60
2022-11-12T21:06:38.234Z,4.60
2022-11-12T21:09:05.688Z,3.80
2022-11-12T21:11:32.571Z,3.70
2022-11-12T21:14:05.043Z,3.60
2022-11-12T21:16:32.637Z,3.90
2022-11-12T21:19:00.209Z,3.30
2022-11-12T21:21:31.257Z,3.40
2022-11-12T21:24:03.574Z,3.10
2022-11-12T21:26:31.838Z,3.60
2022-11-12T21:28:58.680Z,3.30
2022-11-12T21:31:41.172Z,3.30
2022-11-12T21:34:09.667Z,3.70
2022-11-12T21:36:36.441Z,3.50
2022-11-12T21:39:04.643Z,3.60
2022-11-12T21:41:32.327Z,3.40
2022-11-12T21:43:59.209Z,3.30
2022-11-12T21:47:10.510Z,3.20
2022-11-12T21:49:37.907Z,3.30
2022-11-12T21:52:04.903Z,3.10
2022-11-12T21:54:31.733Z,3.10
2022-11-12T21:56:58.810Z,2.90
2022-11-12T21:59:27.510Z,2.80
2022-11-12T22:05:18.246Z,2.80
2022-11-12T22:07:45.625Z,2.70
2022-11-12T22:10:12.396Z,2.60
2022-11-12T22:12:39.803Z,2.80
2022-11-12T22:15:07.901Z,2.80
2022-11-12T22:17:34.845Z,3.00
2022-11-12T22:20:01.728Z,2.50
2022-11-12T22:22:28.530Z,2.70
2022-11-12T22:24:55.382Z,2.20
2022-11-12T22:27:22.229Z,2.40
2022-11-12T22:29:49.273Z,2.50
2022-11-12T22:32:16.913Z,2.40
2022-11-12T22:34:49.333Z,2.40
2022-11-12T22:37:18.065Z,2.40
2022-11-12T22:39:49.401Z,2.70
2022-11-12T22:43:01.090Z,2.70
2022-11-12T22:45:27.926Z,3.10
2022-11-12T22:47:54.990Z,2.60
2022-11-12T22:50:21.854Z,2.60
2022-11-12T22:52:50.270Z,2.70
2022-11-12T22:55:17.301Z,2.50
2022-11-12T22:57:44.210Z,2.60
2022-11-12T23:00:11.364Z,2.50
2022-11-12T23:03:20.500Z,2.60
2022-11-12T23:05:47.304Z,2.40
2022-11-12T23:13:39.278Z,2.30
2022-11-12T23:16:09.863Z,2.30
2022-11-12T23:18:36.684Z,2.40
2022-11-12T23:21:04.737Z,2.40
2022-11-12T23:23:31.724Z,2.20
2022-11-12T23:26:02.790Z,2.20
2022-11-12T23:28:29.849Z,2.20
2022-11-12T23:30:58.058Z,2.20
2022-11-12T23:33:24.867Z,2.10
2022-11-12T23:35:51.930Z,2.10
2022-11-12T23:38:59.086Z,2.10
2022-11-12T23:41:26.395Z,3.30
2022-11-12T23:43:53.511Z,2.00
2022-11-12T23:46:20.936Z,2.10
2022-11-12T23:48:48.012Z,2.10
2022-11-12T23:51:15.198Z,2.70
2022-11-12T23:53:42.098Z,2.00
2022-11-12T23:56:09.883Z,2.00
2022-11-12T23:58:37.089Z,2.00
